Milagro, Argentina
Current Conditions -  °F | °C
As of 9:00 PM on Tuesday 25 Nov 2014 (Local Time) from SACO Reporting Station
Clear Clear  
Wind Chill: 19°   Ceiling: Unl
Heat Index: 19°   Visibility: 6mi
Dew Point: 11°   Wind: 5mph
Humidity: 60%   Direction: 50°NE
Pressure: 29.94"   Gusts: NA
Location:  31.02°S, 65.98°W
Report Text: SACO 260000Z 05004KT CAVOK 19/11 Q1014
Loading
Personal Weather Stations






























Interactive Weather Map New forecast layout! Learn more

10-Day Weather Forecast

Advertisements
Track Severe Weather on mobile